Time;durP1;ratioP1;P1;durP2;ratioP2;P2;SDS_P1;SDS_P2;PMS_P1;PMS_P2;Temp;Humidity;BMP_temperature;BMP_pressure;BME280_temperature;BME280_humidity;BME280_pressure;Samples;Min_cycle;Max_cycle;Signal;HPM_P1;HPM_P2
2022/08/22 00:01:08;;;;;;;0.00;0.00;;;;;;;18.74;100.00;97591.44;4877479;29;20467;-82
2022/08/22 00:03:45;;;;;;;0.00;0.00;;;;;;;18.79;100.00;97589.09;4877502;29;20557;-81
2022/08/22 00:06:23;;;;;;;0.00;0.00;;;;;;;18.80;100.00;97592.63;4876138;29;20064;-81
2022/08/22 00:09:02;;;;;;;0.00;0.00;;;;;;;18.77;100.00;97582.28;4876384;29;20139;-80
2022/08/22 00:11:43;;;;;;;0.00;0.00;;;;;;;18.67;100.00;97584.22;4876653;29;20503;-80
2022/08/22 00:14:19;;;;;;;0.00;0.00;;;;;;;18.58;100.00;97583.34;4876939;29;20052;-80
2022/08/22 00:16:57;;;;;;;0.00;0.00;;;;;;;18.59;100.00;97581.50;4874874;29;20045;-80
2022/08/22 00:19:35;;;;;;;0.00;0.00;;;;;;;18.59;100.00;97578.81;4876673;29;20398;-81
2022/08/22 00:22:09;;;;;;;0.00;0.00;;;;;;;18.54;100.00;97583.81;4877622;29;20041;-79
2022/08/22 00:24:48;;;;;;;0.00;0.00;;;;;;;18.53;100.00;97582.13;4877143;29;20055;-79
2022/08/22 00:27:21;;;;;;;0.00;0.00;;;;;;;18.55;100.00;97572.13;4876956;29;20045;-79
2022/08/22 00:29:52;;;;;;;;;;;;;;;18.54;100.00;97578.47;4877078;29;20045;-82
2022/08/22 00:32:27;;;;;;;0.00;0.00;;;;;;;18.43;100.00;97571.56;4877158;29;19931;-84
2022/08/22 00:35:01;;;;;;;0.00;0.00;;;;;;;18.39;100.00;97567.56;4877209;29;20049;-82
2022/08/22 00:37:33;;;;;;;0.00;0.00;;;;;;;18.34;100.00;97577.00;4876906;29;20057;-80
2022/08/22 00:40:08;;;;;;;0.00;0.00;;;;;;;18.37;100.00;97568.72;4876863;29;20417;-83
2022/08/22 00:42:53;;;;;;;0.00;0.00;;;;;;;18.34;100.00;97577.84;4876268;29;20045;-80
2022/08/22 00:45:58;;;;;;;0.00;0.00;;;;;;;18.35;100.00;97571.53;4877251;29;20071;-80
2022/08/22 00:48:58;;;;;;;0.00;0.00;;;;;;;18.33;100.00;97573.53;4877144;29;20108;-81
2022/08/22 00:51:46;;;;;;;0.00;0.00;;;;;;;18.30;100.00;97579.16;4876298;29;20139;-80
2022/08/22 00:54:26;;;;;;;0.00;0.00;;;;;;;18.27;100.00;97574.16;4877151;29;20041;-82
2022/08/22 00:57:23;;;;;;;0.00;0.00;;;;;;;18.23;100.00;97582.59;4875304;29;20403;-80
2022/08/22 01:00:10;;;;;;;0.00;0.00;;;;;;;18.24;100.00;97579.78;4876104;29;20069;-79
2022/08/22 01:02:56;;;;;;;0.00;0.00;;;;;;;18.25;100.00;97575.31;4876542;29;20519;-80
2022/08/22 01:05:43;;;;;;;0.00;0.00;;;;;;;18.19;100.00;97568.78;4875141;29;20061;-82
2022/08/22 01:08:29;;;;;;;0.00;0.00;;;;;;;18.19;100.00;97571.44;4874938;29;20043;-80
2022/08/22 01:11:10;;;;;;;0.00;0.00;;;;;;;18.13;100.00;97577.38;4875534;29;20096;-82
2022/08/22 01:13:56;;;;;;;0.00;0.00;;;;;;;18.09;100.00;97570.69;4877304;29;20131;-85
2022/08/22 01:16:44;;;;;;;0.00;0.00;;;;;;;18.03;100.00;97571.34;4876990;29;20078;-82
2022/08/22 01:19:45;;;;;;;0.00;0.00;;;;;;;18.03;100.00;97568.69;4878271;29;20069;-79
2022/08/22 01:22:47;;;;;;;0.00;0.00;;;;;;;18.09;100.00;97576.03;4878275;29;20460;-78
2022/08/22 01:26:08;;;;;;;0.00;0.00;;;;;;;18.11;100.00;97568.72;4840007;29;20061;-79
2022/08/22 01:28:56;;;;;;;0.00;0.00;;;;;;;18.09;100.00;97569.88;4839718;29;20133;-78
2022/08/22 01:32:07;;;;;;;0.00;0.00;;;;;;;18.06;100.00;97576.31;4839706;29;20107;-80
2022/08/22 01:35:12;;;;;;;0.00;0.00;;;;;;;18.01;100.00;97570.66;4839207;29;20141;-78
2022/08/22 01:38:17;;;;;;;0.00;0.00;;;;;;;18.03;100.00;97566.00;4827698;29;20094;-79
2022/08/22 01:41:26;;;;;;;0.00;0.00;;;;;;;18.04;100.00;97577.47;4830625;29;20054;-84
2022/08/22 01:44:13;;;;;;;0.00;0.00;;;;;;;18.01;100.00;97578.63;4830351;29;20126;-78
2022/08/22 01:46:57;;;;;;;0.00;0.00;;;;;;;18.04;100.00;97580.16;4827762;29;20058;-80
2022/08/22 01:49:29;;;;;;;0.00;0.00;;;;;;;18.04;100.00;97577.47;4835130;29;20057;-79
2022/08/22 01:52:04;;;;;;;0.00;0.00;;;;;;;18.02;100.00;97579.47;4828517;29;20078;-78
2022/08/22 01:54:44;;;;;;;0.00;0.00;;;;;;;18.04;100.00;97581.00;4839392;29;20083;-82
2022/08/22 01:57:13;;;;;;;0.00;0.00;;;;;;;18.03;100.00;97587.31;4838566;29;20076;-79
2022/08/22 01:59:44;;;;;;;0.00;0.00;;;;;;;18.03;100.00;97589.13;4839082;29;20113;-78
2022/08/22 02:02:47;;;;;;;0.00;0.00;;;;;;;18.10;100.00;97590.19;4838619;29;20058;-84
2022/08/22 02:05:26;;;;;;;0.00;0.00;;;;;;;18.13;100.00;97593.34;4838174;29;20119;-79
2022/08/22 02:08:01;;;;;;;0.00;0.00;;;;;;;18.12;100.00;97591.69;4824833;29;20050;-79
2022/08/22 02:10:47;;;;;;;0.00;0.00;;;;;;;18.13;100.00;97592.53;4839430;29;20041;-80
2022/08/22 02:13:33;;;;;;;0.00;0.00;;;;;;;18.15;100.00;97603.84;4839317;29;20403;-87
2022/08/22 02:16:09;;;;;;;0.00;0.00;;;;;;;18.14;100.00;97602.19;4839477;29;20103;-79
2022/08/22 02:18:50;;;;;;;0.00;0.00;;;;;;;18.12;100.00;97594.34;4877874;29;20161;-83
2022/08/22 02:21:31;;;;;;;0.00;0.00;;;;;;;18.13;100.00;97600.53;4866889;29;20124;-79
2022/08/22 02:24:03;;;;;;;0.00;0.00;;;;;;;18.12;100.00;97599.69;4878287;29;20133;-82
2022/08/22 02:26:48;;;;;;;0.00;0.00;;;;;;;18.14;100.00;97596.88;4879569;29;20053;-79
2022/08/22 02:29:21;;;;;;;0.00;0.00;;;;;;;18.07;100.00;97596.66;4878942;29;20049;-79
2022/08/22 02:31:56;;;;;;;0.00;0.00;;;;;;;18.09;100.00;97593.84;4878451;29;20033;-85
2022/08/22 02:34:34;;;;;;;0.00;0.00;;;;;;;18.08;100.00;97593.00;4878290;29;20041;-85
2022/08/22 02:37:08;;;;;;;0.00;0.00;;;;;;;18.04;100.00;97599.63;4888476;29;20057;-80
2022/08/22 02:39:44;;;;;;;0.00;0.00;;;;;;;18.02;100.00;97600.78;4865819;29;20056;-83
2022/08/22 02:42:24;;;;;;;0.00;0.00;;;;;;;18.03;100.00;97600.63;4874395;29;20057;-81
2022/08/22 02:45:12;;;;;;;0.00;0.00;;;;;;;18.07;100.00;97604.66;4877993;29;20514;-81
2022/08/22 02:47:47;;;;;;;0.00;0.00;;;;;;;17.99;100.00;97606.41;4878273;29;20155;-81
2022/08/22 02:50:20;;;;;;;0.00;0.00;;;;;;;17.93;100.00;97591.88;4877499;29;20064;-80
2022/08/22 02:52:57;;;;;;;0.00;0.00;;;;;;;17.94;100.00;97596.22;4873646;29;20048;-81
2022/08/22 02:55:40;;;;;;;0.00;0.00;;;;;;;17.93;100.00;97596.38;4877854;29;20410;-80
2022/08/22 02:58:19;;;;;;;0.00;0.00;;;;;;;17.87;100.00;97597.81;4877977;29;20137;-81
2022/08/22 03:00:51;;;;;;;0.00;0.00;;;;;;;17.88;100.00;97607.50;4877978;29;20459;-82
2022/08/22 03:03:24;;;;;;;0.00;0.00;;;;;;;17.87;100.00;97603.13;4877840;29;20076;-80
2022/08/22 03:05:58;;;;;;;0.00;0.00;;;;;;;17.90;100.00;97596.66;4877126;29;20053;-79
2022/08/22 03:08:29;;;;;;;0.00;0.00;;;;;;;17.91;100.00;97598.34;4877813;29;20060;-80
2022/08/22 03:11:09;;;;;;;0.00;0.00;;;;;;;17.90;100.00;97599.31;4872061;29;20041;-81
2022/08/22 03:13:53;;;;;;;0.00;0.00;;;;;;;17.95;100.00;97600.53;4877852;29;20053;-81
2022/08/22 03:16:28;;;;;;;0.00;0.00;;;;;;;17.93;100.00;97602.53;4881206;29;20487;-85
2022/08/22 03:19:03;;;;;;;0.00;0.00;;;;;;;17.88;100.00;97607.50;4881297;29;20048;-80
2022/08/22 03:21:37;;;;;;;0.00;0.00;;;;;;;17.86;100.00;97598.81;4881604;29;20045;-80
2022/08/22 03:24:12;;;;;;;0.00;0.00;;;;;;;17.84;100.00;97598.13;4881233;29;20136;-79
2022/08/22 03:26:52;;;;;;;0.00;0.00;;;;;;;17.78;100.00;97604.84;4880963;29;20055;-80
2022/08/22 03:29:24;;;;;;;0.00;0.00;;;;;;;17.81;100.00;97605.59;4881384;29;20041;-81
2022/08/22 03:32:12;;;;;;;0.00;0.00;;;;;;;17.82;100.00;97605.44;4881124;29;20049;-80
2022/08/22 03:34:55;;;;;;;0.00;0.00;;;;;;;17.80;100.00;97610.06;4871794;29;20044;-80
2022/08/22 03:37:25;;;;;;;;;;;;;;;17.79;100.00;97611.03;4881381;29;20049;-79
2022/08/22 03:40:00;;;;;;;0.00;0.00;;;;;;;17.74;100.00;97614.13;4880869;29;20389;-80
2022/08/22 03:43:03;;;;;;;0.00;0.00;;;;;;;17.67;100.00;97610.41;4880437;29;20045;-83
2022/08/22 03:46:15;;;;;;;0.00;0.00;;;;;;;17.72;100.00;97611.81;4871833;29;20052;-81
2022/08/22 03:49:10;;;;;;;0.00;0.00;;;;;;;17.77;100.00;97612.16;4856333;29;20181;-80
2022/08/22 03:52:04;;;;;;;0.00;0.00;;;;;;;17.73;100.00;97618.78;4847049;29;20499;-80
2022/08/22 03:54:57;;;;;;;0.00;0.00;;;;;;;17.69;100.00;97615.59;4856275;29;20563;-79
2022/08/22 03:57:57;;;;;;;0.00;0.00;;;;;;;17.69;100.00;97615.59;4848666;29;20397;-79
2022/08/22 04:00:53;;;;;;;0.00;0.00;;;;;;;17.74;100.00;97613.31;4853433;29;20128;-79
2022/08/22 04:04:09;;;;;;;0.00;0.00;;;;;;;17.77;100.00;97609.50;4847460;29;20073;-80
2022/08/22 04:07:04;;;;;;;0.00;0.00;;;;;;;17.77;100.00;97610.34;4848975;29;20060;-80
2022/08/22 04:10:15;;;;;;;0.00;0.00;;;;;;;17.80;100.00;97601.22;4851635;29;20056;-82
2022/08/22 04:13:11;;;;;;;0.00;0.00;;;;;;;17.73;100.00;97608.97;4845924;29;20061;-82
2022/08/22 04:16:23;;;;;;;0.00;0.00;;;;;;;17.72;100.00;97611.81;4857729;29;20053;-80
2022/08/22 04:19:11;;;;;;;0.00;0.00;;;;;;;17.72;100.00;97609.97;4797419;29;20497;-80
2022/08/22 04:21:52;;;;;;;0.00;0.00;;;;;;;17.80;100.00;97612.72;4793741;29;20130;-80
2022/08/22 04:24:37;;;;;;;0.00;0.00;;;;;;;17.86;100.00;97613.94;4802114;29;20051;-79
2022/08/22 04:27:14;;;;;;;0.00;0.00;;;;;;;17.69;100.00;97621.75;4835921;29;20136;-80
2022/08/22 04:29:52;;;;;;;0.00;0.00;;;;;;;17.72;100.00;97615.28;4841450;29;20103;-79
2022/08/22 04:32:28;;;;;;;0.00;0.00;;;;;;;17.82;100.00;97610.75;4840458;29;20053;-83
2022/08/22 04:35:02;;;;;;;0.00;0.00;;;;;;;17.84;100.00;97602.63;4830443;29;20057;-80
2022/08/22 04:37:38;;;;;;;0.00;0.00;;;;;;;17.83;100.00;97615.09;4834767;29;20046;-80
2022/08/22 04:40:14;;;;;;;0.00;0.00;;;;;;;17.91;100.00;97612.47;4834093;29;20056;-79
2022/08/22 04:42:45;;;;;;;0.00;0.00;;;;;;;17.96;100.00;97618.19;4838713;29;20060;-79
2022/08/22 04:45:18;;;;;;;0.00;0.00;;;;;;;17.99;100.00;97620.56;4840637;29;20064;-79
2022/08/22 04:47:52;;;;;;;0.00;0.00;;;;;;;18.01;100.00;97617.72;4841093;29;20109;-79
2022/08/22 04:50:24;;;;;;;0.00;0.00;;;;;;;18.03;100.00;97624.59;4836891;29;20068;-81
2022/08/22 04:53:22;;;;;;;0.00;0.00;;;;;;;18.02;100.00;97620.22;4845359;29;20053;-78
2022/08/22 04:56:01;;;;;;;0.00;0.00;;;;;;;18.04;100.00;97623.59;4873575;29;20073;-78
2022/08/22 04:58:48;;;;;;;0.00;0.00;;;;;;;18.08;100.00;97638.25;4871991;29;20057;-78
2022/08/22 05:01:21;;;;;;;0.00;0.00;;;;;;;18.13;100.00;97633.28;4876943;29;20448;-78
2022/08/22 05:03:56;;;;;;;0.00;0.00;;;;;;;18.10;100.00;97624.78;4861564;29;20504;-78
2022/08/22 05:06:27;;;;;;;0.00;0.00;;;;;;;18.09;100.00;97625.78;4865626;29;20072;-78
2022/08/22 05:08:59;;;;;;;0.00;0.00;;;;;;;18.10;100.00;97625.63;4865694;29;20053;-79
2022/08/22 05:11:29;;;;;;;0.00;0.00;;;;;;;18.05;100.00;97627.91;4869165;29;20060;-79
2022/08/22 05:13:59;;;;;;;0.00;0.00;;;;;;;18.11;100.00;97632.63;4878296;29;20523;-81
2022/08/22 05:16:33;;;;;;;0.00;0.00;;;;;;;18.15;100.00;97639.31;4878799;29;20041;-80
2022/08/22 05:19:05;;;;;;;0.00;0.00;;;;;;;18.18;100.00;97631.03;4879518;29;20037;-79
2022/08/22 05:21:37;;;;;;;0.00;0.00;;;;;;;18.15;100.00;97639.31;4879478;29;20045;-80
2022/08/22 05:24:09;;;;;;;0.00;0.00;;;;;;;18.15;100.00;97639.31;4879300;29;20403;-80
2022/08/22 05:26:41;;;;;;;0.00;0.00;;;;;;;18.14;100.00;97642.13;4878920;29;20053;-81
2022/08/22 05:29:12;;;;;;;0.00;0.00;;;;;;;18.11;100.00;97645.94;4879153;29;20805;-81
2022/08/22 05:31:48;;;;;;;0.00;0.00;;;;;;;18.10;100.00;97644.28;4868250;29;20121;-80
2022/08/22 05:34:20;;;;;;;0.00;0.00;;;;;;;18.10;100.00;97649.59;4877562;29;20414;-79
2022/08/22 05:36:56;;;;;;;0.00;0.00;;;;;;;18.09;100.00;97653.22;4872796;29;20068;-79
2022/08/22 05:39:27;;;;;;;0.00;0.00;;;;;;;18.10;100.00;97651.41;4868964;29;20053;-80
2022/08/22 05:41:56;;;;;;;0.00;0.00;;;;;;;18.06;100.00;97660.69;4874381;29;20435;-80
2022/08/22 05:44:27;;;;;;;0.00;0.00;;;;;;;18.04;100.00;97658.19;4871297;29;20072;-81
2022/08/22 05:47:01;;;;;;;0.00;0.00;;;;;;;18.09;100.00;97657.75;4868172;29;20049;-81
2022/08/22 05:49:34;;;;;;;0.00;0.00;;;;;;;18.11;100.00;97664.56;4873740;29;20047;-79
2022/08/22 05:52:16;;;;;;;0.00;0.00;;;;;;;18.14;100.00;97663.44;4876558;29;20456;-85
2022/08/22 05:54:51;;;;;;;0.00;0.00;;;;;;;18.10;100.00;97673.56;4875413;29;20048;-79
2022/08/22 05:57:27;;;;;;;0.00;0.00;;;;;;;18.07;100.00;97670.34;4878957;29;20049;-80
2022/08/22 06:00:02;;;;;;;0.00;0.00;;;;;;;18.12;100.00;97673.38;4865581;29;20056;-80
2022/08/22 06:02:53;;;;;;;0.00;0.00;;;;;;;18.11;100.00;97669.91;4878740;29;20513;-82
2022/08/22 06:05:25;;;;;;;0.00;0.00;;;;;;;18.19;100.00;97669.97;4877539;29;20313;-79
2022/08/22 06:08:01;;;;;;;0.00;0.00;;;;;;;18.21;100.00;97675.13;4872182;29;20546;-85
2022/08/22 06:10:36;;;;;;;0.00;0.00;;;;;;;18.23;100.00;97673.97;4872626;29;20045;-80
2022/08/22 06:13:09;;;;;;;0.00;0.00;;;;;;;18.27;100.00;97671.84;4875780;29;20073;-81
2022/08/22 06:15:43;;;;;;;0.00;0.00;;;;;;;18.30;100.00;97671.53;4873001;29;20097;-80
2022/08/22 06:18:14;;;;;;;0.00;0.00;;;;;;;18.35;100.00;97678.06;4868106;29;20403;-82
2022/08/22 06:20:45;;;;;;;0.00;0.00;;;;;;;18.40;100.00;97675.78;4870340;29;20045;-82
2022/08/22 06:23:20;;;;;;;0.00;0.00;;;;;;;18.44;100.00;97671.81;4870379;29;20124;-83
2022/08/22 06:25:52;;;;;;;0.00;0.00;;;;;;;18.49;100.00;97674.84;4873686;29;20050;-79
2022/08/22 06:28:24;;;;;;;0.00;0.00;;;;;;;18.55;100.00;97673.38;4877875;29;20041;-81
2022/08/22 06:30:55;;;;;;;0.00;0.00;;;;;;;18.57;100.00;97672.22;4870614;29;20398;-80
2022/08/22 06:33:27;;;;;;;0.00;0.00;;;;;;;18.61;100.00;97672.78;4867949;29;20041;-80
2022/08/22 06:39:00;;;;;;;0.00;0.00;;;;;;;18.55;100.00;97676.06;4873392;29;20053;-82
2022/08/22 06:41:33;;;;;;;0.00;0.00;;;;;;;18.46;100.00;97685.00;4874117;29;20398;-80
2022/08/22 06:44:04;;;;;;;0.00;0.00;;;;;;;18.36;100.00;97690.41;4875660;29;20532;-84
2022/08/22 06:46:35;;;;;;;0.00;0.00;;;;;;;18.38;100.00;97698.22;4873719;29;20049;-82
2022/08/22 06:49:07;;;;;;;0.00;0.00;;;;;;;18.45;100.00;97692.13;4871954;29;20051;-81
2022/08/22 06:51:37;;;;;;;0.00;0.00;;;;;;;18.45;100.00;97691.28;4871661;29;20049;-81
2022/08/22 06:54:08;;;;;;;0.00;0.00;;;;;;;18.43;100.00;97694.09;4874758;29;20567;-81
2022/08/22 06:56:40;;;;;;;0.00;0.00;;;;;;;18.39;100.00;97691.94;4876374;29;20129;-81
2022/08/22 06:59:12;;;;;;;0.00;0.00;;;;;;;18.40;100.00;97694.44;4875011;29;20053;-83
2022/08/22 07:01:48;;;;;;;0.00;0.00;;;;;;;18.36;100.00;97693.09;4873778;29;20113;-82
2022/08/22 07:04:18;;;;;;;0.00;0.00;;;;;;;18.27;100.00;97691.31;4877840;29;20037;-82
2022/08/22 07:06:50;;;;;;;0.00;0.00;;;;;;;18.15;100.00;97695.22;4875096;29;20148;-85
2022/08/22 07:09:23;;;;;;;0.00;0.00;;;;;;;18.16;100.00;97698.75;4876265;29;20061;-81
2022/08/22 07:11:52;;;;;;;0.00;0.00;;;;;;;18.19;100.00;97683.28;4873286;29;20052;-82
2022/08/22 07:14:27;;;;;;;0.00;0.00;;;;;;;18.17;100.00;97690.56;4875401;29;20046;-83
2022/08/22 07:16:58;;;;;;;0.00;0.00;;;;;;;18.14;100.00;97690.91;4876051;29;20140;-82
2022/08/22 07:19:31;;;;;;;0.00;0.00;;;;;;;18.13;100.00;97696.38;4872834;29;20460;-86
2022/08/22 07:22:09;;;;;;;0.00;0.00;;;;;;;18.18;100.00;97697.59;4877819;29;20060;-82
2022/08/22 07:24:44;;;;;;;0.00;0.00;;;;;;;18.27;100.00;97694.00;4875702;29;20634;-81
2022/08/22 07:27:23;;;;;;;0.00;0.00;;;;;;;18.29;100.00;97700.00;4876543;29;20057;-87
2022/08/22 07:30:01;;;;;;;0.00;0.00;;;;;;;18.30;100.00;97695.50;4873246;29;20080;-85
2022/08/22 07:32:40;;;;;;;0.00;0.00;;;;;;;18.23;100.00;97697.94;4870327;29;20050;-87
2022/08/22 07:35:14;;;;;;;0.00;0.00;;;;;;;18.30;100.00;97701.69;4875480;29;20045;-81
2022/08/22 07:37:56;;;;;;;0.00;0.00;;;;;;;18.37;100.00;97702.72;4877426;29;20507;-82
2022/08/22 07:40:30;;;;;;;0.00;0.00;;;;;;;18.44;100.00;97701.13;4874937;29;20113;-80
2022/08/22 07:43:03;;;;;;;0.00;0.00;;;;;;;18.48;100.00;97710.47;4879419;29;20132;-78
2022/08/22 07:45:40;;;;;;;0.00;0.00;;;;;;;18.46;100.00;97711.63;4875328;29;20042;-81
2022/08/22 07:48:20;;;;;;;0.00;0.00;;;;;;;18.48;100.00;97707.81;4871638;29;20098;-81
2022/08/22 07:50:58;;;;;;;0.00;0.00;;;;;;;18.48;100.00;97713.16;4873293;29;20043;-79
2022/08/22 07:53:33;;;;;;;0.00;0.00;;;;;;;18.55;100.00;97708.03;4873889;29;20125;-77
2022/08/22 07:56:02;;;;;;;0.00;0.00;;;;;;;18.63;100.00;97708.09;4867757;29;20050;-77
2022/08/22 07:58:33;;;;;;;0.00;0.00;;;;;;;18.63;100.00;97708.97;4875616;29;20136;-81
2022/08/22 08:01:01;;;;;;;0.00;0.00;;;;;;;18.69;100.00;97708.34;4874444;29;20052;-78
2022/08/22 08:03:30;;;;;;;0.00;0.00;;;;;;;18.71;100.00;97706.34;4875447;29;20051;-77
2022/08/22 08:06:01;;;;;;;0.00;0.00;;;;;;;18.82;100.00;97713.22;4878951;29;20089;-77
2022/08/22 08:08:34;;;;;;;0.00;0.00;;;;;;;18.96;100.00;97705.50;4880181;29;20045;-78
2022/08/22 08:11:04;;;;;;;0.00;0.00;;;;;;;18.98;100.00;97708.81;4874399;29;20045;-78
2022/08/22 08:13:35;;;;;;;0.00;0.00;;;;;;;19.01;100.00;97713.84;4869962;29;20053;-78
2022/08/22 08:16:06;;;;;;;0.00;0.00;;;;;;;19.02;100.00;97715.50;4871780;29;20137;-80
2022/08/22 08:18:37;;;;;;;0.00;0.00;;;;;;;19.11;100.00;97711.91;4876078;29;20108;-82
2022/08/22 08:21:10;;;;;;;0.00;0.00;;;;;;;19.17;100.00;97721.09;4876918;29;20080;-80
2022/08/22 08:23:41;;;;;;;0.00;0.00;;;;;;;19.28;100.00;97716.34;4877381;29;20064;-85
2022/08/22 08:26:14;;;;;;;0.00;0.00;;;;;;;19.36;100.00;97719.03;4877355;29;20045;-79
2022/08/22 08:28:45;;;;;;;0.00;0.00;;;;;;;19.41;100.00;97718.53;4874409;29;20403;-79
2022/08/22 08:31:23;;;;;;;0.00;0.00;;;;;;;19.40;100.00;97720.38;4874296;29;20045;-79
2022/08/22 08:34:00;;;;;;;0.00;0.00;;;;;;;19.37;100.00;97715.38;4873637;29;20052;-85
2022/08/22 08:36:40;;;;;;;0.00;0.00;;;;;;;19.46;100.00;97717.09;4870670;29;20041;-79
2022/08/22 08:39:16;;;;;;;0.00;0.00;;;;;;;19.62;100.00;97719.84;4874668;29;20060;-79
2022/08/22 08:42:08;;;;;;;0.00;0.00;;;;;;;19.91;100.00;97719.41;4874920;29;20473;-79
2022/08/22 08:45:03;;;;;;;0.00;0.00;;;;;;;20.11;100.00;97715.41;4873428;29;20103;-79
2022/08/22 08:47:47;;;;;;;0.00;0.00;;;;;;;20.27;100.00;97716.28;4873440;29;20135;-79
2022/08/22 08:50:40;;;;;;;0.00;0.00;;;;;;;20.46;100.00;97709.78;4868890;29;20049;-80
2022/08/22 08:53:40;;;;;;;0.00;0.00;;;;;;;20.53;100.00;97716.97;4873579;29;20061;-79
2022/08/22 08:56:22;;;;;;;0.00;0.00;;;;;;;20.69;100.00;97714.28;4874710;29;20064;-79
2022/08/22 08:58:59;;;;;;;0.00;0.00;;;;;;;20.88;100.00;97706.91;4871984;29;20109;-79
2022/08/22 09:01:56;;;;;;;0.00;0.00;;;;;;;20.89;100.00;97708.56;4879234;29;20076;-79
2022/08/22 09:04:43;;;;;;;0.00;0.00;;;;;;;20.83;100.00;97707.41;4873663;29;20579;-78
2022/08/22 09:07:44;;;;;;;0.00;0.00;;;;;;;20.99;100.00;97707.41;4873399;29;20178;-78
2022/08/22 09:10:37;;;;;;;0.00;0.00;;;;;;;20.99;100.00;97693.22;4875980;29;20049;-79
2022/08/22 09:13:40;;;;;;;0.00;0.00;;;;;;;20.92;100.00;97700.25;4871743;29;20160;-80
2022/08/22 09:16:23;;;;;;;0.00;0.00;;;;;;;20.87;100.00;97695.38;4875459;29;20129;-79
2022/08/22 09:19:21;;;;;;;0.00;0.00;;;;;;;21.08;100.00;97692.16;4873915;29;20045;-81
2022/08/22 09:22:22;;;;;;;0.00;0.00;;;;;;;21.39;100.00;97693.88;4873872;29;20048;-80
2022/08/22 09:25:18;;;;;;;0.00;0.00;;;;;;;21.52;100.00;97690.66;4866024;29;20041;-80
2022/08/22 09:27:53;;;;;;;0.00;0.00;;;;;;;21.65;100.00;97689.09;4866374;29;20033;-80
2022/08/22 09:30:24;;;;;;;0.00;0.00;;;;;;;21.72;100.00;97694.63;4871558;29;20088;-79
2022/08/22 09:32:58;;;;;;;0.00;0.00;;;;;;;21.62;100.00;97688.59;4872058;29;20051;-81
2022/08/22 09:35:36;;;;;;;0.00;0.00;;;;;;;21.83;100.00;97691.53;4871116;29;20132;-83
2022/08/22 09:38:23;;;;;;;0.00;0.00;;;;;;;21.99;100.00;97696.78;4863259;29;20052;-82
2022/08/22 09:40:56;;;;;;;0.00;0.00;;;;;;;22.18;100.00;97699.00;4877723;29;20044;-79
2022/08/22 09:43:34;;;;;;;0.00;0.00;;;;;;;22.51;100.00;97687.88;4875592;29;20048;-84
2022/08/22 09:46:13;;;;;;;0.00;0.00;;;;;;;22.96;100.00;97689.59;4874738;29;20053;-80
2022/08/22 09:48:50;;;;;;;0.00;0.00;;;;;;;23.36;100.00;97686.47;4877340;29;20409;-81
2022/08/22 09:51:30;;;;;;;0.00;0.00;;;;;;;23.55;98.61;97691.25;4879202;29;20055;-80
2022/08/22 09:54:14;;;;;;;0.00;0.00;;;;;;;23.52;97.81;97691.63;4874678;29;20050;-80
2022/08/22 09:56:53;;;;;;;0.00;0.00;;;;;;;23.49;97.48;97687.47;4886916;29;20092;-82
2022/08/22 09:59:26;;;;;;;0.00;0.00;;;;;;;23.49;97.86;97692.03;4872501;29;20059;-81
2022/08/22 10:01:59;;;;;;;0.00;0.00;;;;;;;23.42;98.04;97704.53;4871644;29;20136;-80
2022/08/22 10:04:44;;;;;;;0.00;0.00;;;;;;;23.35;97.34;97703.63;4872370;29;20053;-80
2022/08/22 10:07:33;;;;;;;0.00;0.00;;;;;;;23.28;96.63;97708.06;4872659;29;20045;-79
2022/08/22 10:10:16;;;;;;;0.00;0.00;;;;;;;23.35;96.80;97711.66;4876699;29;20042;-79
2022/08/22 10:12:51;;;;;;;0.00;0.00;;;;;;;23.36;97.34;97707.97;4877040;29;20151;-78
2022/08/22 10:15:29;;;;;;;0.00;0.00;;;;;;;23.26;97.94;97705.56;4877378;29;20056;-78
2022/08/22 10:18:08;;;;;;;0.00;0.00;;;;;;;23.11;98.59;97710.09;4876562;29;20079;-79
2022/08/22 10:20:50;;;;;;;0.00;0.00;;;;;;;23.33;99.16;97711.84;4876650;29;20127;-79
2022/08/22 10:23:22;;;;;;;0.00;0.00;;;;;;;23.79;96.16;97704.41;4875039;29;20069;-78
2022/08/22 10:25:53;;;;;;;0.00;0.00;;;;;;;24.06;94.12;97703.69;4878520;29;20053;-79
2022/08/22 10:28:40;;;;;;;0.00;0.00;;;;;;;24.29;92.18;97704.34;4874237;29;20047;-84
2022/08/22 10:31:22;;;;;;;0.00;0.00;;;;;;;24.33;92.53;97691.38;4870096;29;20067;-79
2022/08/22 10:34:03;;;;;;;0.00;0.00;;;;;;;24.44;91.60;97688.16;4878711;29;20041;-78
2022/08/22 10:36:45;;;;;;;0.00;0.00;;;;;;;24.33;90.78;97694.06;4878516;29;20103;-82
2022/08/22 10:39:20;;;;;;;0.00;0.00;;;;;;;24.34;91.65;97691.19;4878350;29;20061;-79
2022/08/22 10:42:02;;;;;;;0.00;0.00;;;;;;;24.33;91.02;97697.56;4877009;29;20074;-79
2022/08/22 10:44:37;;;;;;;0.00;0.00;;;;;;;24.39;89.77;97701.34;4875516;29;20172;-79
2022/08/22 10:47:12;;;;;;;0.00;0.00;;;;;;;24.62;89.36;97691.22;4872957;29;20057;-79
2022/08/22 10:49:46;;;;;;;0.00;0.00;;;;;;;24.77;88.48;97691.97;4872315;29;20041;-84
2022/08/22 10:52:21;;;;;;;0.00;0.00;;;;;;;24.73;89.27;97686.13;4875217;29;20518;-82
2022/08/22 10:54:52;;;;;;;0.00;0.00;;;;;;;24.74;86.70;97682.44;4873674;29;20053;-80
2022/08/22 10:57:36;;;;;;;0.00;0.00;;;;;;;24.78;87.98;97686.41;4871024;29;20048;-83
2022/08/22 11:00:13;;;;;;;0.00;0.00;;;;;;;24.92;85.75;97680.09;4874584;29;20055;-80
2022/08/22 11:03:00;;;;;;;0.00;0.00;;;;;;;25.11;84.90;97678.56;4867794;29;20496;-86
2022/08/22 11:05:34;;;;;;;0.00;0.00;;;;;;;25.39;84.26;97682.84;4867118;29;20060;-86
2022/08/22 11:08:24;;;;;;;0.00;0.00;;;;;;;25.56;82.30;97678.84;4870475;29;20053;-81
2022/08/22 11:11:14;;;;;;;0.00;0.00;;;;;;;26.02;81.58;97669.03;4865263;29;20055;-82
2022/08/22 11:13:49;;;;;;;0.00;0.00;;;;;;;26.20;80.68;97668.50;4863022;29;20049;-81
2022/08/22 11:16:45;;;;;;;0.00;0.00;;;;;;;26.45;79.74;97669.53;4865537;29;20088;-80
2022/08/22 11:19:27;;;;;;;0.00;0.00;;;;;;;26.86;78.93;97666.66;4870955;29;20112;-80
2022/08/22 11:22:06;;;;;;;0.00;0.00;;;;;;;26.82;76.71;97660.84;4872435;29;20521;-81
2022/08/22 11:25:11;;;;;;;0.00;0.00;;;;;;;26.74;77.85;97658.34;4877771;29;20067;-87
2022/08/22 11:27:54;;;;;;;0.00;0.00;;;;;;;26.34;76.69;97662.91;4865688;29;20518;-81
2022/08/22 11:30:31;;;;;;;0.00;0.00;;;;;;;26.02;79.21;97658.25;4873182;29;20052;-81
2022/08/22 11:33:13;;;;;;;0.00;0.00;;;;;;;25.90;79.55;97657.19;4886966;29;20428;-80
2022/08/22 11:35:48;;;;;;;0.00;0.00;;;;;;;25.88;79.15;97653.03;4870249;29;20046;-83
2022/08/22 11:38:26;;;;;;;0.00;0.00;;;;;;;25.95;79.77;97662.78;4868805;29;20060;-79
2022/08/22 11:41:00;;;;;;;0.00;0.00;;;;;;;25.79;79.83;97665.03;4870186;29;20373;-79
2022/08/22 11:43:40;;;;;;;0.00;0.00;;;;;;;25.64;81.26;97673.28;4869112;29;20444;-79
2022/08/22 11:46:19;;;;;;;0.00;0.00;;;;;;;25.69;80.82;97670.78;4867822;29;20477;-81
2022/08/22 11:48:59;;;;;;;0.00;0.00;;;;;;;25.66;80.45;97671.19;4868116;29;20045;-79
2022/08/22 11:51:51;;;;;;;0.00;0.00;;;;;;;25.45;80.13;97670.44;4877955;29;20202;-79
2022/08/22 11:54:25;;;;;;;0.00;0.00;;;;;;;25.32;80.80;97670.41;4876177;29;20053;-86
2022/08/22 11:57:03;;;;;;;0.00;0.00;;;;;;;25.34;81.85;97669.16;4875275;29;20077;-77
2022/08/22 11:59:51;;;;;;;0.00;0.00;;;;;;;25.39;81.13;97666.69;4876504;29;20133;-79
2022/08/22 12:02:24;;;;;;;0.00;0.00;;;;;;;25.53;81.11;97652.28;4878183;29;20402;-83
2022/08/22 12:04:59;;;;;;;0.00;0.00;;;;;;;25.88;80.25;97661.13;4876338;29;20057;-80
2022/08/22 12:07:31;;;;;;;0.00;0.00;;;;;;;26.12;78.35;97645.22;4875254;29;20408;-87
2022/08/22 12:10:02;;;;;;;0.00;0.00;;;;;;;26.12;77.58;97645.22;4873274;29;20060;-83
2022/08/22 12:12:46;;;;;;;0.00;0.00;;;;;;;26.24;77.43;97640.06;4870697;29;20041;-79
2022/08/22 12:15:20;;;;;;;0.00;0.00;;;;;;;26.44;77.21;97636.34;4868541;29;20456;-83
2022/08/22 12:18:24;;;;;;;0.00;0.00;;;;;;;26.60;77.04;97635.91;4867346;29;20156;-85
2022/08/22 12:21:39;;;;;;;0.00;0.00;;;;;;;26.24;77.39;97623.88;4874307;29;20105;-79
2022/08/22 12:24:43;;;;;;;0.00;0.00;;;;;;;25.88;77.86;97629.59;4830480;29;20046;-82
2022/08/22 12:27:25;;;;;;;0.00;0.00;;;;;;;25.72;78.01;97634.50;4829494;29;20432;-86
2022/08/22 12:30:05;;;;;;;0.00;0.00;;;;;;;25.70;77.53;97625.81;4831394;29;20062;-79